»·PEaware :: EJA827 KBOI-KSEA

EJA827 :: KBOI-KSEA

FLIGHT INFORMATION

Flight Status: Arrived
Operator:
Netjets Aviation
More flights by this operator :: More flights under this callsign
Pilot: Anonymous 31865 (31865)
Aircraft: GULFSTREAM G-1159C GULFSTREAM 4
(GLF4)
More flights by this aircraft type
Origin: KBOI Boise Air Terminal/Gowen
United States
Destination: KSEA Seattle-Tacoma Intl
United States
More flights between these airports :: More routes between these airports
Route: +BOI3 OLAAH PREIS PDT CHINS4
File this flight plan on PilotEdge
Remarks:
Altitude:
(Current/Filed)
38,000ft
Speed:
(Current/Filed)
475kts
Departed: 30-Oct-20 12:08 PM
Arrived: 30-Oct-20 01:16 PM
Distance/Time
Traveled:
346nm/1:08
Distance/Time
To Go:
Arrived

Flight Plot

Page will automatically refresh every two minutes.

Flight plan parsing failed; only flown route is shown


Map Options




Map Legend


Flown Route
Filed Route
Departure Airport
Arrival Airport
Navaid (VOR, NDB)
Fix

Horizontal Profiles

Position Reports

Time Latitude Longitude Heading Altitude Ground
Speed
30-Oct-20 11:53 43.568937 -116.227583 183 2879ft 0kts
30-Oct-20 11:54 43.568937 -116.227583 183 2879ft 0kts
30-Oct-20 11:55 43.568937 -116.227583 183 2879ft 0kts
30-Oct-20 11:56 43.568937 -116.227583 183 2879ft 0kts
30-Oct-20 11:57 43.568937 -116.227583 183 2879ft 0kts
30-Oct-20 11:58 43.568937 -116.227583 183 2879ft 0kts
30-Oct-20 11:59 43.568937 -116.227583 183 2879ft 0kts
30-Oct-20 12:00 43.568937 -116.227583 183 2879ft 0kts
30-Oct-20 12:01 43.568937 -116.227583 183 2879ft 0kts
30-Oct-20 12:02 43.568937 -116.227583 183 2879ft 0kts
30-Oct-20 12:03 43.568925 -116.227586 186 2879ft 1kts
30-Oct-20 12:04 43.568780 -116.229202 293 2879ft 7kts
30-Oct-20 12:05 43.570115 -116.233085 295 2879ft 10kts
30-Oct-20 12:06 43.570952 -116.236098 245 2879ft 0kts
30-Oct-20 12:06 43.570760 -116.236396 213 2879ft 8kts
30-Oct-20 12:08 43.561196 -116.210517 114 3152ft 181kts
30-Oct-20 12:08 43.542846 -116.148019 110 4822ft 222kts
30-Oct-20 12:09 43.519048 -116.066566 110 6833ft 235kts
30-Oct-20 12:10 43.500610 -115.966941 66 8819ft 303kts
30-Oct-20 12:11 43.565552 -115.950245 310 10987ft 279kts
30-Oct-20 12:12 43.628892 -116.037393 311 13049ft 352kts
30-Oct-20 12:13 43.698537 -116.133418 310 15052ft 359kts
30-Oct-20 12:14 43.769931 -116.232192 310 17353ft 368kts
30-Oct-20 12:15 43.843524 -116.334394 310 20374ft 384kts
30-Oct-20 12:16 43.920580 -116.441808 310 24336ft 406kts
30-Oct-20 12:17 44.001973 -116.555705 310 28330ft 423kts
30-Oct-20 12:18 44.082857 -116.669377 309 32292ft 409kts
30-Oct-20 12:19 44.171761 -116.767151 313 36337ft 406kts
30-Oct-20 12:20 44.254357 -116.880180 310 38078ft 441kts
30-Oct-20 12:21 44.340387 -116.998520 310 38074ft 431kts
30-Oct-20 12:22 44.425551 -117.116199 311 38073ft 431kts
30-Oct-20 12:23 44.510928 -117.234657 311 38050ft 431kts
30-Oct-20 12:24 44.596087 -117.353354 311 38022ft 432kts
30-Oct-20 12:25 44.680897 -117.472087 311 38015ft 433kts
30-Oct-20 12:26 44.765965 -117.591699 311 38014ft 433kts
30-Oct-20 12:27 44.851166 -117.712032 310 38022ft 432kts
30-Oct-20 12:28 44.935899 -117.832241 310 38021ft 432kts
30-Oct-20 12:29 45.020023 -117.952005 309 38036ft 424kts
30-Oct-20 12:30 45.101739 -118.068941 307 38063ft 412kts
30-Oct-20 12:31 45.181630 -118.183889 307 38071ft 409kts
30-Oct-20 12:32 45.261157 -118.298683 307 38069ft 409kts
30-Oct-20 12:33 45.340654 -118.413925 307 38068ft 408kts
30-Oct-20 12:34 45.419976 -118.529401 307 38066ft 408kts
30-Oct-20 12:35 45.499225 -118.645268 307 38049ft 409kts
30-Oct-20 12:36 45.577687 -118.760474 306 38036ft 408kts
30-Oct-20 12:37 45.656590 -118.876824 306 38022ft 408kts
30-Oct-20 12:38 45.732904 -118.996816 303 38020ft 408kts
30-Oct-20 12:39 45.806148 -119.120419 303 38018ft 407kts
30-Oct-20 12:40 45.879466 -119.244768 303 38016ft 408kts
30-Oct-20 12:41 45.952398 -119.369018 303 38011ft 407kts
30-Oct-20 12:42 46.025257 -119.493701 303 37997ft 408kts
30-Oct-20 12:43 46.098101 -119.618893 303 37935ft 401kts
30-Oct-20 12:44 46.168555 -119.740559 302 35880ft 391kts
30-Oct-20 12:45 46.237710 -119.860522 302 33409ft 392kts
30-Oct-20 12:46 46.308238 -119.983394 303 30928ft 403kts
30-Oct-20 12:47 46.380218 -120.109349 303 28433ft 411kts
30-Oct-20 12:48 46.451608 -120.234808 303 26349ft 398kts
30-Oct-20 12:49 46.520967 -120.357291 303 24465ft 388kts
30-Oct-20 12:50 46.587360 -120.478338 297 23997ft 380kts
30-Oct-20 12:51 46.647448 -120.606016 299 23986ft 382kts
30-Oct-20 12:52 46.711211 -120.740063 299 23996ft 410kts
30-Oct-20 12:53 46.775651 -120.876145 299 23987ft 408kts
30-Oct-20 12:54 46.834803 -121.001736 299 23988ft 368kts
30-Oct-20 12:55 46.891351 -121.122317 300 23502ft 355kts
30-Oct-20 12:56 46.942711 -121.232183 301 21080ft 312kts
30-Oct-20 12:57 46.990528 -121.334904 301 18541ft 303kts
30-Oct-20 12:58 47.037010 -121.435161 302 16222ft 290kts
30-Oct-20 12:59 47.082853 -121.534359 302 15893ft 293kts
30-Oct-20 13:00 47.128626 -121.633808 302 15897ft 293kts
30-Oct-20 13:01 47.174174 -121.733125 301 15917ft 293kts
30-Oct-20 13:02 47.219812 -121.833002 301 15655ft 298kts
30-Oct-20 13:03 47.263411 -121.928732 301 13644ft 274kts
30-Oct-20 13:04 47.305859 -122.022262 301 12127ft 270kts
30-Oct-20 13:05 47.347683 -122.114727 301 11973ft 273kts
30-Oct-20 13:06 47.391828 -122.200495 326 11903ft 268kts
30-Oct-20 13:07 47.471175 -122.200080 358 10412ft 293kts
30-Oct-20 13:08 47.551060 -122.192022 358 8226ft 280kts
30-Oct-20 13:09 47.623116 -122.187395 354 5268ft 236kts
30-Oct-20 13:10 47.647527 -122.258131 253 3985ft 194kts
30-Oct-20 13:11 47.602796 -122.300463 191 3558ft 200kts
30-Oct-20 13:12 47.553994 -122.315843 187 2250ft 173kts
30-Oct-20 13:13 47.509665 -122.317670 181 1391ft 138kts
30-Oct-20 13:14 47.473102 -122.317778 182 672ft 125kts
30-Oct-20 13:15 47.448445 -122.317988 180 441ft 35kts
30-Oct-20 13:16 47.443763 -122.315648 151 441ft 15kts
30-Oct-20 13:17 47.440809 -122.313615 180 441ft 13kts
30-Oct-20 13:18 47.439296 -122.315337 178 441ft 8kts

Navigation Log

Ident Type
Flight plan parsing failed, navigation log unavailable